createdAt,value
2022-08-25T00:01:37.643Z,58.70
2022-08-25T00:04:10.560Z,58.60
2022-08-25T00:06:38.454Z,58.70
2022-08-25T00:09:06.487Z,58.60
2022-08-25T00:11:35.614Z,58.70
2022-08-25T00:14:05.554Z,58.70
2022-08-25T00:16:32.744Z,58.80
2022-08-25T00:19:02.034Z,58.70
2022-08-25T00:21:31.456Z,58.40
2022-08-25T00:23:59.695Z,58.30
2022-08-25T00:26:27.561Z,58.20
2022-08-25T00:28:55.213Z,58.20
2022-08-25T00:31:38.669Z,58.30
2022-08-25T00:34:09.367Z,58.50
2022-08-25T00:36:37.001Z,58.70
2022-08-25T00:39:04.389Z,58.80
2022-08-25T00:41:31.125Z,59.10
2022-08-25T00:44:00.470Z,59.20
2022-08-25T00:46:31.034Z,59.20
2022-08-25T00:49:05.701Z,59.10
2022-08-25T00:51:58.538Z,59.20
2022-08-25T00:54:30.715Z,59.30
2022-08-25T00:56:59.244Z,59.20
2022-08-25T00:59:27.559Z,59.20
2022-08-25T01:01:55.428Z,59.10
2022-08-25T01:04:22.550Z,59.30
2022-08-25T01:06:49.530Z,59.50
2022-08-25T01:09:17.582Z,59.60
2022-08-25T01:11:46.415Z,59.50
2022-08-25T01:14:18.842Z,59.40
2022-08-25T01:16:45.805Z,59.40
2022-08-25T01:19:17.610Z,59.40
2022-08-25T01:21:48.811Z,60.10
2022-08-25T01:24:57.322Z,59.50
2022-08-25T01:27:23.958Z,59.60
2022-08-25T01:29:51.006Z,59.40
2022-08-25T01:32:17.819Z,59.50
2022-08-25T01:34:45.872Z,59.50
2022-08-25T01:37:15.585Z,59.50
2022-08-25T01:39:43.338Z,59.20
2022-08-25T01:42:15.674Z,59.10
2022-08-25T01:44:45.311Z,59.00
2022-08-25T01:47:13.526Z,59.00
2022-08-25T01:49:40.255Z,59.00
2022-08-25T01:52:21.341Z,59.10
2022-08-25T01:54:48.444Z,59.20
2022-08-25T01:57:15.260Z,59.30
2022-08-25T01:59:41.958Z,59.40
2022-08-25T02:02:08.759Z,59.30
2022-08-25T02:04:37.724Z,59.30
2022-08-25T02:07:06.548Z,59.30
2022-08-25T02:09:35.449Z,59.20
2022-08-25T02:12:02.202Z,59.20
2022-08-25T02:14:28.900Z,59.30
2022-08-25T02:16:56.315Z,59.40
2022-08-25T02:19:24.656Z,59.60
2022-08-25T02:21:51.672Z,59.80
2022-08-25T02:24:18.957Z,60.10
2022-08-25T02:26:45.705Z,60.30
2022-08-25T02:29:12.401Z,60.30
2022-08-25T02:31:39.882Z,60.40
2022-08-25T02:34:07.843Z,60.50
2022-08-25T02:36:35.000Z,60.60
2022-08-25T02:39:03.166Z,60.70
2022-08-25T02:41:31.785Z,60.90
2022-08-25T02:44:03.002Z,61.00
2022-08-25T02:46:31.224Z,61.00
2022-08-25T02:48:58.487Z,61.00
2022-08-25T02:51:28.497Z,61.10
2022-08-25T02:53:57.892Z,61.20
2022-08-25T02:56:25.878Z,61.40
2022-08-25T02:58:52.658Z,61.90
2022-08-25T03:01:19.515Z,61.30
2022-08-25T03:03:48.310Z,61.30
2022-08-25T03:06:18.307Z,61.30
2022-08-25T03:08:45.342Z,61.50
2022-08-25T03:11:12.236Z,61.50
2022-08-25T03:13:39.454Z,61.50
2022-08-25T03:16:11.401Z,62.00
2022-08-25T03:18:40.474Z,61.30
2022-08-25T03:21:08.107Z,61.30
2022-08-25T03:23:35.314Z,61.40
2022-08-25T03:26:20.804Z,61.50
2022-08-25T03:28:47.458Z,61.40
2022-08-25T03:31:14.257Z,61.30
2022-08-25T03:33:40.918Z,61.20
2022-08-25T03:36:09.378Z,61.20
2022-08-25T03:38:38.452Z,61.10
2022-08-25T03:41:30.332Z,61.10
2022-08-25T03:43:57.521Z,61.10
2022-08-25T03:46:32.449Z,61.00
2022-08-25T03:49:04.962Z,60.80
2022-08-25T03:51:35.467Z,60.80
2022-08-25T03:54:03.558Z,60.80
2022-08-25T03:56:30.954Z,60.60
2022-08-25T03:58:57.800Z,60.70
2022-08-25T04:01:25.507Z,61.20
2022-08-25T04:03:52.300Z,60.80
2022-08-25T04:06:19.840Z,60.80
2022-08-25T04:08:46.712Z,60.80
2022-08-25T04:11:17.455Z,60.70
2022-08-25T04:13:46.557Z,60.60
2022-08-25T04:16:15.071Z,60.60
2022-08-25T04:18:42.672Z,60.70
2022-08-25T04:21:10.642Z,60.70
2022-08-25T04:23:38.811Z,60.70
2022-08-25T04:26:14.489Z,60.70
2022-08-25T04:28:41.770Z,60.50
2022-08-25T04:31:09.713Z,60.40
2022-08-25T04:33:38.104Z,60.30
2022-08-25T04:36:11.394Z,60.20
2022-08-25T04:38:40.627Z,60.20
2022-08-25T04:41:11.464Z,60.20
2022-08-25T04:43:39.888Z,60.20
2022-08-25T04:46:12.417Z,60.40
2022-08-25T04:48:40.343Z,60.40
2022-08-25T04:51:12.523Z,60.30
2022-08-25T04:53:40.830Z,60.10
2022-08-25T04:56:10.103Z,60.10
2022-08-25T04:58:37.826Z,60.20
2022-08-25T05:01:06.409Z,60.20
2022-08-25T05:03:33.338Z,60.30
2022-08-25T05:06:00.012Z,60.40
2022-08-25T05:08:27.449Z,60.50
2022-08-25T05:10:56.512Z,60.70
2022-08-25T05:13:24.807Z,60.90
2022-08-25T05:15:57.579Z,60.90
2022-08-25T05:18:30.124Z,61.50
2022-08-25T05:21:01.195Z,61.40
2022-08-25T05:23:27.823Z,61.00
2022-08-25T05:25:54.667Z,61.10
2022-08-25T05:28:21.624Z,61.30
2022-08-25T05:30:51.602Z,61.40
2022-08-25T05:33:18.443Z,61.50
2022-08-25T05:35:45.197Z,61.60
2022-08-25T05:38:15.353Z,61.90
2022-08-25T05:40:42.548Z,62.00
2022-08-25T05:43:09.363Z,62.20
2022-08-25T05:45:36.627Z,62.30
2022-08-25T05:48:03.574Z,62.40
2022-08-25T05:50:30.221Z,62.60
2022-08-25T05:52:56.824Z,62.70
2022-08-25T05:55:23.550Z,62.80
2022-08-25T05:57:50.357Z,62.80
2022-08-25T06:00:17.676Z,62.90
2022-08-25T06:02:46.206Z,62.90
2022-08-25T06:05:19.459Z,63.00
2022-08-25T06:07:48.487Z,63.10
2022-08-25T06:10:16.413Z,63.10
2022-08-25T06:12:44.706Z,63.80
2022-08-25T06:15:14.503Z,63.40
2022-08-25T06:17:42.812Z,63.40
2022-08-25T06:20:13.926Z,63.40
2022-08-25T06:22:40.898Z,63.60
2022-08-25T06:25:10.222Z,63.70
2022-08-25T06:27:37.540Z,63.80
2022-08-25T06:30:07.631Z,63.80
2022-08-25T06:32:36.605Z,64.10
2022-08-25T06:35:05.012Z,63.90
2022-08-25T06:37:32.682Z,63.90
2022-08-25T06:39:59.354Z,64.00
2022-08-25T06:42:26.311Z,63.90
2022-08-25T06:44:53.284Z,63.80
2022-08-25T06:47:20.379Z,63.40
2022-08-25T06:49:47.447Z,62.80
2022-08-25T06:52:14.545Z,61.90
2022-08-25T06:54:41.366Z,60.80
2022-08-25T06:57:08.376Z,59.60
2022-08-25T06:59:36.032Z,58.40
2022-08-25T07:02:04.483Z,57.30
2022-08-25T07:04:32.197Z,56.50
2022-08-25T07:06:59.071Z,55.90
2022-08-25T07:09:25.815Z,55.30
2022-08-25T07:11:52.477Z,54.50
2022-08-25T07:14:20.036Z,54.00
2022-08-25T07:16:50.397Z,53.40
2022-08-25T07:19:20.681Z,52.70
2022-08-25T07:21:51.330Z,52.30
2022-08-25T07:24:18.429Z,51.90
2022-08-25T07:26:46.670Z,51.60
2022-08-25T07:29:17.462Z,51.20
2022-08-25T07:31:44.658Z,50.50
2022-08-25T07:34:30.234Z,50.20
2022-08-25T07:36:58.574Z,49.80
2022-08-25T07:39:26.736Z,49.50
2022-08-25T07:41:55.780Z,49.10
2022-08-25T07:44:23.632Z,48.90
2022-08-25T07:46:51.232Z,48.70
2022-08-25T07:49:23.266Z,48.40
2022-08-25T07:52:05.403Z,48.30
2022-08-25T07:54:37.593Z,48.20
2022-08-25T07:57:06.495Z,48.00
2022-08-25T07:59:39.434Z,48.10
2022-08-25T08:02:08.682Z,47.80
2022-08-25T08:04:37.272Z,47.40
2022-08-25T08:07:04.746Z,47.20
2022-08-25T08:09:38.690Z,46.90
2022-08-25T08:12:05.779Z,46.80
2022-08-25T08:14:32.745Z,46.50
2022-08-25T08:16:59.793Z,46.10
2022-08-25T08:19:26.696Z,45.90
2022-08-25T08:21:54.281Z,45.70
2022-08-25T08:24:40.776Z,45.40
2022-08-25T08:27:09.152Z,45.20
2022-08-25T08:29:36.948Z,44.90
2022-08-25T08:32:05.781Z,44.60
2022-08-25T08:34:33.253Z,44.80
2022-08-25T08:37:00.525Z,44.60
2022-08-25T08:39:28.285Z,44.30
2022-08-25T08:42:18.443Z,44.10
2022-08-25T08:44:45.093Z,44.30
2022-08-25T08:47:33.729Z,44.20
2022-08-25T08:50:27.712Z,43.60
2022-08-25T08:53:22.157Z,43.50
2022-08-25T08:55:53.516Z,43.00
2022-08-25T08:58:51.096Z,42.90
2022-08-25T09:01:29.319Z,42.40
2022-08-25T09:04:09.679Z,41.60
2022-08-25T09:06:42.801Z,41.50
2022-08-25T09:09:14.617Z,41.30
2022-08-25T09:12:12.816Z,41.30
2022-08-25T09:14:57.420Z,40.80
2022-08-25T09:17:54.637Z,41.20
2022-08-25T09:20:46.667Z,40.90
2022-08-25T09:23:34.199Z,40.90
2022-08-25T09:26:33.104Z,40.40
2022-08-25T09:29:07.286Z,40.50
2022-08-25T09:31:43.411Z,40.50
2022-08-25T09:34:21.209Z,40.30
2022-08-25T09:36:50.858Z,39.60
2022-08-25T09:39:20.508Z,39.20
2022-08-25T09:41:52.081Z,39.30
2022-08-25T09:44:28.144Z,39.00
2022-08-25T09:47:02.564Z,38.50
2022-08-25T09:49:44.442Z,39.00
2022-08-25T09:52:41.770Z,38.20
2022-08-25T09:55:08.497Z,37.70
2022-08-25T09:57:44.134Z,37.80
2022-08-25T10:00:15.240Z,37.90
2022-08-25T10:02:44.421Z,38.20
2022-08-25T10:05:25.998Z,37.90
2022-08-25T10:07:57.561Z,37.50
2022-08-25T10:10:38.150Z,37.90
2022-08-25T10:13:23.039Z,37.50
2022-08-25T10:16:20.587Z,36.60
2022-08-25T10:19:01.989Z,36.30
2022-08-25T10:21:28.695Z,36.00
2022-08-25T10:23:58.905Z,36.00
2022-08-25T10:26:41.331Z,35.60
2022-08-25T10:29:34.274Z,35.40
2022-08-25T10:32:16.343Z,35.90
2022-08-25T10:34:53.861Z,35.20
2022-08-25T10:37:59.092Z,34.90
2022-08-25T10:40:37.397Z,34.60
2022-08-25T10:43:32.414Z,34.60
2022-08-25T10:46:35.368Z,34.70
2022-08-25T10:49:13.666Z,34.40
2022-08-25T10:52:05.437Z,33.70
2022-08-25T10:54:40.812Z,33.40
2022-08-25T10:57:43.586Z,33.00
2022-08-25T11:00:17.708Z,31.60
2022-08-25T11:03:18.567Z,32.20
2022-08-25T11:06:02.851Z,31.80
2022-08-25T11:08:48.712Z,32.10
2022-08-25T11:11:28.468Z,31.00
2022-08-25T11:14:11.255Z,31.30
2022-08-25T11:16:45.222Z,30.70
2022-08-25T11:19:30.733Z,30.00
2022-08-25T11:22:19.619Z,30.30
2022-08-25T11:25:23.347Z,29.80
2022-08-25T11:28:02.873Z,29.60
2022-08-25T11:30:29.868Z,29.20
2022-08-25T11:32:58.115Z,28.90
2022-08-25T11:35:41.632Z,28.70
2022-08-25T11:38:08.958Z,28.40
2022-08-25T11:41:11.469Z,28.50
2022-08-25T11:44:09.243Z,27.60
2022-08-25T11:46:57.908Z,27.90
2022-08-25T11:49:49.871Z,27.60
2022-08-25T11:52:53.900Z,27.80
2022-08-25T11:55:27.828Z,28.00
2022-08-25T11:58:33.788Z,27.80
2022-08-25T12:01:03.135Z,27.20
2022-08-25T12:03:32.706Z,27.10
2022-08-25T12:06:25.439Z,27.40
2022-08-25T12:09:01.206Z,27.50
2022-08-25T12:11:54.679Z,27.30
2022-08-25T12:14:24.586Z,27.20
2022-08-25T12:16:55.014Z,27.70
2022-08-25T12:19:38.052Z,27.60
2022-08-25T12:22:04.729Z,27.10
2022-08-25T12:24:48.636Z,27.00
2022-08-25T12:27:33.858Z,27.40
2022-08-25T12:30:38.874Z,27.30
2022-08-25T12:33:33.831Z,27.60
2022-08-25T12:36:04.436Z,28.00
2022-08-25T12:38:52.061Z,28.10
2022-08-25T12:41:31.073Z,27.40
2022-08-25T12:44:38.089Z,26.90
2022-08-25T12:47:23.662Z,26.70
2022-08-25T12:49:50.813Z,26.50
2022-08-25T12:52:21.499Z,25.80
2022-08-25T12:55:06.405Z,25.60
2022-08-25T12:57:41.303Z,25.10
2022-08-25T13:03:04.725Z,25.30
2022-08-25T13:06:00.109Z,25.10
2022-08-25T13:08:47.010Z,25.20
2022-08-25T13:11:23.606Z,25.10
2022-08-25T13:14:19.927Z,25.10
2022-08-25T13:16:55.511Z,24.50
2022-08-25T13:19:22.611Z,24.10
2022-08-25T13:21:49.880Z,23.60
2022-08-25T13:24:26.902Z,23.90
2022-08-25T13:27:24.843Z,23.70
2022-08-25T13:30:03.812Z,23.50
2022-08-25T13:32:35.600Z,23.40
2022-08-25T13:35:12.155Z,23.80
2022-08-25T13:37:41.144Z,23.90
2022-08-25T13:40:20.054Z,24.10
2022-08-25T13:43:05.796Z,24.00
2022-08-25T13:45:41.312Z,23.40
2022-08-25T13:48:23.056Z,23.60
2022-08-25T13:50:53.133Z,24.30
2022-08-25T13:53:26.008Z,24.20
2022-08-25T13:55:59.700Z,23.70
2022-08-25T13:58:39.294Z,23.80
2022-08-25T14:01:44.086Z,23.70
2022-08-25T14:04:26.711Z,23.90
2022-08-25T14:07:15.203Z,23.40
2022-08-25T14:09:54.118Z,23.50
2022-08-25T14:12:37.780Z,23.50
2022-08-25T14:15:27.044Z,23.60
2022-08-25T14:18:17.522Z,23.50
2022-08-25T14:20:50.439Z,23.40
2022-08-25T14:23:25.816Z,23.90
2022-08-25T14:25:55.474Z,23.40
2022-08-25T14:28:29.010Z,23.20
2022-08-25T14:31:27.709Z,22.70
2022-08-25T14:34:29.548Z,22.70
2022-08-25T14:36:56.597Z,22.70
2022-08-25T14:39:23.316Z,22.80
2022-08-25T14:41:52.640Z,22.40
2022-08-25T14:44:21.058Z,22.60
2022-08-25T14:46:54.115Z,22.40
2022-08-25T14:49:29.699Z,21.90
2022-08-25T14:52:01.063Z,21.50
2022-08-25T14:54:29.264Z,21.70
2022-08-25T14:56:57.142Z,21.60
2022-08-25T14:59:24.043Z,21.80
2022-08-25T15:01:50.824Z,21.70
2022-08-25T15:04:22.363Z,21.80
2022-08-25T15:06:53.813Z,21.90
2022-08-25T15:09:21.490Z,21.80
2022-08-25T15:11:51.933Z,22.70
2022-08-25T15:14:28.835Z,22.00
2022-08-25T15:17:01.210Z,21.50
2022-08-25T15:19:28.821Z,21.40
2022-08-25T15:21:57.831Z,21.00
2022-08-25T15:24:26.843Z,21.00
2022-08-25T15:27:01.828Z,21.30
2022-08-25T15:29:30.612Z,21.60
2022-08-25T15:31:58.701Z,21.50
2022-08-25T15:34:25.639Z,22.30
2022-08-25T15:36:52.493Z,22.10
2022-08-25T15:39:19.735Z,22.30
2022-08-25T15:41:52.275Z,22.20
2022-08-25T15:44:19.798Z,22.00
2022-08-25T15:46:49.580Z,22.00
2022-08-25T15:49:20.357Z,22.10
2022-08-25T15:51:47.550Z,21.90
2022-08-25T15:54:15.759Z,22.70
2022-08-25T15:56:44.040Z,22.10
2022-08-25T15:59:13.357Z,22.00
2022-08-25T16:01:41.193Z,22.20
2022-08-25T16:04:07.996Z,22.40
2022-08-25T16:06:34.619Z,22.30
2022-08-25T16:09:02.328Z,22.20
2022-08-25T16:11:30.719Z,22.40
2022-08-25T16:13:58.045Z,23.10
2022-08-25T16:16:26.960Z,23.10
2022-08-25T16:18:54.601Z,23.20
2022-08-25T16:21:25.593Z,23.60
2022-08-25T16:24:02.635Z,23.20
2022-08-25T16:26:32.991Z,23.20
2022-08-25T16:28:59.630Z,22.50
2022-08-25T16:31:27.255Z,21.70
2022-08-25T16:33:57.666Z,22.90
2022-08-25T16:36:27.231Z,22.90
2022-08-25T16:38:57.340Z,23.40
2022-08-25T16:41:26.120Z,23.80
2022-08-25T16:43:53.151Z,24.40
2022-08-25T16:46:21.202Z,24.80
2022-08-25T16:48:48.608Z,24.90
2022-08-25T16:51:19.419Z,25.40
2022-08-25T16:54:08.321Z,26.30
2022-08-25T16:56:37.162Z,27.20
2022-08-25T16:59:06.362Z,27.20
2022-08-25T17:01:36.391Z,27.80
2022-08-25T17:04:03.781Z,28.20
2022-08-25T17:06:35.723Z,28.40
2022-08-25T17:09:02.406Z,28.70
2022-08-25T17:11:32.800Z,28.50
2022-08-25T17:14:06.802Z,28.80
2022-08-25T17:16:38.201Z,28.80
2022-08-25T17:19:08.055Z,28.50
2022-08-25T17:21:40.903Z,27.70
2022-08-25T17:24:12.852Z,28.00
2022-08-25T17:26:41.340Z,28.00
2022-08-25T17:29:08.394Z,28.50
2022-08-25T17:31:39.993Z,28.50
2022-08-25T17:34:12.862Z,28.70
2022-08-25T17:36:43.945Z,29.10
2022-08-25T17:39:12.596Z,29.10
2022-08-25T17:41:39.795Z,29.30
2022-08-25T17:44:07.531Z,30.20
2022-08-25T17:46:34.199Z,30.10
2022-08-25T17:49:00.878Z,30.20
2022-08-25T17:51:29.701Z,30.70
2022-08-25T17:53:58.774Z,31.10
2022-08-25T17:56:27.330Z,31.30
2022-08-25T17:58:55.760Z,31.60
2022-08-25T18:01:29.591Z,32.20
2022-08-25T18:03:57.424Z,32.40
2022-08-25T18:06:24.935Z,32.60
2022-08-25T18:08:58.692Z,32.90
2022-08-25T18:11:27.069Z,33.30
2022-08-25T18:13:55.650Z,33.60
2022-08-25T18:16:23.217Z,33.70
2022-08-25T18:18:50.394Z,34.00
2022-08-25T18:21:20.273Z,34.40
2022-08-25T18:23:47.716Z,35.00
2022-08-25T18:26:17.132Z,35.60
2022-08-25T18:28:48.713Z,35.80
2022-08-25T18:31:15.507Z,36.00
2022-08-25T18:33:46.768Z,36.10
2022-08-25T18:36:13.772Z,36.20
2022-08-25T18:39:00.438Z,36.50
2022-08-25T18:41:33.027Z,36.70
2022-08-25T18:43:59.699Z,37.10
2022-08-25T18:46:26.322Z,37.10
2022-08-25T18:48:53.243Z,37.40
2022-08-25T18:51:22.924Z,37.50
2022-08-25T18:53:54.457Z,37.50
2022-08-25T18:56:26.415Z,37.70
2022-08-25T18:58:53.143Z,38.20
2022-08-25T19:01:20.528Z,38.50
2022-08-25T19:03:48.368Z,38.80
2022-08-25T19:06:15.461Z,39.10
2022-08-25T19:08:42.329Z,39.50
2022-08-25T19:11:09.677Z,39.80
2022-08-25T19:13:36.535Z,40.10
2022-08-25T19:16:11.829Z,40.40
2022-08-25T19:18:38.998Z,40.80
2022-08-25T19:21:08.198Z,40.80
2022-08-25T19:23:37.987Z,41.10
2022-08-25T19:26:08.929Z,41.20
2022-08-25T19:28:45.888Z,41.50
2022-08-25T19:31:22.772Z,41.80
2022-08-25T19:33:52.391Z,42.00
2022-08-25T19:36:31.298Z,42.50
2022-08-25T19:39:01.091Z,42.90
2022-08-25T19:41:29.530Z,43.10
2022-08-25T19:43:57.600Z,43.40
2022-08-25T19:46:35.675Z,43.60
2022-08-25T19:49:22.359Z,44.00
2022-08-25T19:51:51.425Z,44.30
2022-08-25T19:54:27.802Z,44.40
2022-08-25T19:56:55.745Z,44.70
2022-08-25T19:59:42.259Z,45.00
2022-08-25T20:02:15.142Z,45.40
2022-08-25T20:04:42.224Z,45.40
2022-08-25T20:07:09.207Z,45.70
2022-08-25T20:09:40.922Z,45.90
2022-08-25T20:12:09.517Z,46.10
2022-08-25T20:14:36.515Z,46.20
2022-08-25T20:17:04.242Z,46.20
2022-08-25T20:19:41.419Z,46.40
2022-08-25T20:22:11.212Z,46.70
2022-08-25T20:24:55.910Z,46.90
2022-08-25T20:27:34.220Z,47.10
2022-08-25T20:30:03.145Z,47.40
2022-08-25T20:32:31.884Z,47.60
2022-08-25T20:34:58.598Z,47.60
2022-08-25T20:37:25.792Z,47.40
2022-08-25T20:39:52.828Z,47.50
2022-08-25T20:42:19.719Z,47.50
2022-08-25T20:44:47.024Z,47.40
2022-08-25T20:47:14.916Z,47.40
2022-08-25T20:49:44.832Z,47.40
2022-08-25T20:52:12.148Z,47.60
2022-08-25T20:54:40.281Z,47.80
2022-08-25T20:57:07.936Z,47.90
2022-08-25T20:59:34.924Z,48.10
2022-08-25T21:02:02.111Z,48.30
2022-08-25T21:04:30.126Z,48.50
2022-08-25T21:06:58.129Z,48.70
2022-08-25T21:09:26.396Z,48.90
2022-08-25T21:11:56.577Z,49.00
2022-08-25T21:14:24.169Z,49.30
2022-08-25T21:16:52.407Z,49.50
2022-08-25T21:19:26.738Z,49.80
2022-08-25T21:21:59.467Z,49.80
2022-08-25T21:24:28.322Z,50.10
2022-08-25T21:26:58.592Z,50.40
2022-08-25T21:29:28.375Z,50.70
2022-08-25T21:31:56.387Z,50.60
2022-08-25T21:34:23.438Z,50.70
2022-08-25T21:36:50.148Z,51.10
2022-08-25T21:39:17.183Z,51.30
2022-08-25T21:41:44.615Z,51.60
2022-08-25T21:44:12.763Z,52.00
2022-08-25T21:46:42.272Z,52.00
2022-08-25T21:49:20.894Z,52.30
2022-08-25T21:51:47.574Z,52.50
2022-08-25T21:54:16.880Z,52.60
2022-08-25T21:56:48.604Z,52.80
2022-08-25T21:59:19.147Z,52.90
2022-08-25T22:01:46.067Z,53.10
2022-08-25T22:04:14.244Z,53.30
2022-08-25T22:06:42.051Z,53.60
2022-08-25T22:09:12.689Z,53.70
2022-08-25T22:11:42.219Z,54.00
2022-08-25T22:14:10.013Z,54.10
2022-08-25T22:16:38.144Z,54.10
2022-08-25T22:19:06.203Z,54.30
2022-08-25T22:21:33.407Z,54.40
2022-08-25T22:24:00.607Z,54.40
2022-08-25T22:26:29.636Z,54.60
2022-08-25T22:28:57.802Z,54.80
2022-08-25T22:31:25.152Z,54.80
2022-08-25T22:33:52.329Z,55.00
2022-08-25T22:36:29.897Z,55.10
2022-08-25T22:38:57.480Z,55.40
2022-08-25T22:41:26.921Z,55.40
2022-08-25T22:43:56.572Z,55.60
2022-08-25T22:46:27.863Z,55.60
2022-08-25T22:48:55.931Z,55.70
2022-08-25T22:51:28.242Z,55.80
2022-08-25T22:53:55.313Z,56.00
2022-08-25T22:56:30.746Z,56.00
2022-08-25T22:59:03.127Z,56.20
2022-08-25T23:01:31.775Z,56.20
2022-08-25T23:04:00.952Z,56.20
2022-08-25T23:06:29.393Z,56.20
2022-08-25T23:08:56.299Z,56.30
2022-08-25T23:11:24.368Z,56.30
2022-08-25T23:13:55.272Z,56.30
2022-08-25T23:16:22.898Z,57.00
2022-08-25T23:18:49.861Z,56.40
2022-08-25T23:21:40.916Z,56.40
2022-08-25T23:24:08.757Z,56.30
2022-08-25T23:26:42.403Z,56.40
2022-08-25T23:29:18.335Z,56.50
2022-08-25T23:31:46.941Z,56.40
2022-08-25T23:34:15.251Z,56.40
2022-08-25T23:36:42.146Z,56.40
2022-08-25T23:39:09.126Z,56.50
2022-08-25T23:41:36.961Z,56.60
2022-08-25T23:44:09.295Z,56.70
2022-08-25T23:46:39.003Z,56.80
2022-08-25T23:49:08.421Z,56.80
2022-08-25T23:51:38.103Z,56.90
2022-08-25T23:54:09.602Z,57.00
2022-08-25T23:56:44.594Z,57.10
2022-08-25T23:59:18.148Z,57.30
